CheckWX is a tool to help pilots better visualize weather data.  It is not intended as a substitute for an official pre-flight weather briefing.

09:42:49 UTC

F00 METAR
Jones Field Airport
Bonham, Texas, USA
Current

8 mins ago

KF00 230935Z AUTO 20005KT 10SM -RA OVC080 25/23 A3001 RMK AO2 P0001 T02520232
Observed
Sep-23 @ 09:35 UTC
Wind
  • 200° at 5 KTS
Visibility
10 SM
Flight Rules
VFR
Conditions
Light Rain
Cloud Levels
  • Overcast at 8,000' AGL
Temperature
25°C / 77°F
Dewpoint
23°C / 73°F
Humidity
89%
Altimeter
30.01" Hg
Pressure
1016.22 hPa
Current Rain
0.01"
Previous

28 mins ago

KF00 230915Z AUTO 20007KT 7SM -RA OVC080 25/23 A3001 RMK AO2 P0001 T02540232
Observed
Sep-23 @ 09:15 UTC
Wind
  • 200° at 7 KTS
Visibility
7 SM
Flight Rules
VFR
Conditions
Light Rain
Cloud Levels
  • Overcast at 8,000' AGL
Temperature
25°C / 77°F
Dewpoint
23°C / 73°F
Humidity
89%
Altimeter
30.01" Hg
Pressure
1016.22 hPa
Current Rain
0.01"
Previous

48 mins ago

KF00 230855Z AUTO 18010G15KT 10SM BKN080 26/23 A3000 RMK AO2 T02570231
Observed
Sep-23 @ 08:55 UTC
Wind
  • 180° at 10 KTS
  • Gusting to 15 KTS
Visibility
10 SM
Flight Rules
VFR
Cloud Levels
  • Broken at 8,000' AGL
Temperature
26°C / 79°F
Dewpoint
23°C / 73°F
Humidity
84%
Altimeter
30" Hg
Pressure
1015.92 hPa